createdAt,value
2023-06-30T00:01:25.257Z,17.42
2023-06-30T00:04:31.837Z,17.39
2023-06-30T00:07:37.556Z,17.38
2023-06-30T00:10:42.726Z,17.40
2023-06-30T00:13:47.240Z,17.36
2023-06-30T00:16:52.245Z,17.37
2023-06-30T00:19:59.081Z,17.32
2023-06-30T00:23:03.768Z,17.33
2023-06-30T00:26:08.300Z,17.31
2023-06-30T00:29:12.779Z,17.35
2023-06-30T00:32:17.113Z,17.33
2023-06-30T00:35:21.202Z,17.36
2023-06-30T00:38:25.925Z,17.33
2023-06-30T00:41:30.111Z,17.28
2023-06-30T00:44:34.652Z,17.24
2023-06-30T00:47:39.530Z,17.25
2023-06-30T00:50:44.365Z,17.25
2023-06-30T00:53:48.969Z,17.23
2023-06-30T00:56:53.218Z,17.20
2023-06-30T01:00:06.092Z,17.16
2023-06-30T01:03:21.274Z,17.14
2023-06-30T01:06:39.908Z,17.10
2023-06-30T01:09:59.818Z,17.12
2023-06-30T01:13:06.303Z,17.07
2023-06-30T01:16:11.142Z,17.01
2023-06-30T01:19:36.499Z,16.99
2023-06-30T01:22:58.349Z,16.96
2023-06-30T01:26:04.172Z,16.90
2023-06-30T01:29:11.015Z,16.88
2023-06-30T01:32:18.508Z,16.85
2023-06-30T01:35:28.243Z,16.83
2023-06-30T01:38:32.428Z,16.80
2023-06-30T01:41:37.628Z,16.80
2023-06-30T01:44:43.178Z,16.79
2023-06-30T01:47:48.355Z,16.80
2023-06-30T01:50:54.959Z,16.83
2023-06-30T01:53:59.669Z,16.81
2023-06-30T01:57:04.561Z,16.82
2023-06-30T02:00:09.678Z,16.85
2023-06-30T02:03:14.862Z,16.84
2023-06-30T02:06:19.431Z,16.81
2023-06-30T02:09:34.498Z,16.80
2023-06-30T02:12:48.237Z,16.77
2023-06-30T02:15:53.041Z,16.75
2023-06-30T02:18:57.788Z,16.80
2023-06-30T02:22:02.014Z,16.77
2023-06-30T02:25:07.382Z,16.76
2023-06-30T02:28:12.064Z,16.73
2023-06-30T02:31:16.649Z,16.74
2023-06-30T02:34:21.103Z,16.74
2023-06-30T02:37:25.296Z,16.75
2023-06-30T02:40:31.002Z,16.72
2023-06-30T02:43:35.236Z,16.74
2023-06-30T02:46:39.613Z,16.73
2023-06-30T02:49:44.152Z,16.71
2023-06-30T02:52:48.650Z,16.67
2023-06-30T02:55:52.821Z,16.61
2023-06-30T02:58:57.249Z,16.55
2023-06-30T03:02:01.659Z,16.55
2023-06-30T03:05:08.025Z,16.51
2023-06-30T03:08:12.419Z,16.49
2023-06-30T03:11:16.958Z,16.42
2023-06-30T03:14:22.135Z,16.44
2023-06-30T03:17:26.462Z,16.44
2023-06-30T03:20:30.973Z,16.43
2023-06-30T03:23:35.913Z,16.45
2023-06-30T03:26:40.645Z,16.47
2023-06-30T03:29:45.248Z,16.54
2023-06-30T03:32:49.613Z,16.58
2023-06-30T03:35:54.197Z,16.54
2023-06-30T03:38:59.059Z,16.54
2023-06-30T03:42:03.846Z,16.58
2023-06-30T03:45:09.528Z,16.57
2023-06-30T03:48:13.792Z,16.55
2023-06-30T03:51:18.309Z,16.49
2023-06-30T03:54:23.033Z,16.54
2023-06-30T03:57:27.725Z,16.57
2023-06-30T04:00:32.733Z,16.56
2023-06-30T04:03:38.138Z,16.62
2023-06-30T04:06:44.598Z,16.65
2023-06-30T04:09:49.070Z,16.61
2023-06-30T04:12:53.642Z,16.58
2023-06-30T04:15:59.785Z,16.50
2023-06-30T04:19:04.453Z,16.47
2023-06-30T04:22:08.827Z,16.44
2023-06-30T04:25:13.090Z,16.40
2023-06-30T04:28:18.061Z,16.40
2023-06-30T04:31:22.404Z,16.41
2023-06-30T04:34:26.761Z,16.44
2023-06-30T04:37:31.660Z,16.46
2023-06-30T04:40:35.865Z,16.52
2023-06-30T04:43:49.301Z,16.59
2023-06-30T04:46:53.874Z,16.66
2023-06-30T04:49:59.963Z,16.69
2023-06-30T04:53:04.312Z,16.71
2023-06-30T04:56:08.750Z,16.68
2023-06-30T04:59:14.137Z,16.71
2023-06-30T05:02:19.203Z,16.74
2023-06-30T05:05:23.620Z,16.74
2023-06-30T05:08:27.825Z,16.76
2023-06-30T05:11:32.528Z,16.76
2023-06-30T05:14:37.108Z,16.81
2023-06-30T05:17:41.666Z,16.80
2023-06-30T05:20:46.280Z,16.77
2023-06-30T05:23:50.711Z,16.81
2023-06-30T05:26:55.572Z,16.78
2023-06-30T05:29:59.958Z,16.78
2023-06-30T05:33:04.803Z,16.83
2023-06-30T05:36:09.354Z,16.76
2023-06-30T05:39:15.201Z,16.69
2023-06-30T05:42:20.064Z,16.61
2023-06-30T05:45:24.446Z,16.61
2023-06-30T05:48:29.539Z,16.60
2023-06-30T05:51:35.996Z,16.69
2023-06-30T05:54:40.387Z,16.70
2023-06-30T05:57:44.908Z,16.74
2023-06-30T06:00:50.281Z,16.74
2023-06-30T06:03:55.283Z,16.78
2023-06-30T06:07:03.910Z,16.80
2023-06-30T06:10:09.052Z,16.71
2023-06-30T06:13:13.376Z,16.76
2023-06-30T06:16:17.870Z,16.81
2023-06-30T06:19:22.688Z,16.80
2023-06-30T06:22:27.222Z,16.82
2023-06-30T06:25:31.442Z,16.80
2023-06-30T06:28:35.843Z,16.84
2023-06-30T06:31:40.328Z,16.86
2023-06-30T06:34:45.018Z,16.86
2023-06-30T06:37:49.410Z,16.86
2023-06-30T06:40:53.769Z,16.97
2023-06-30T06:43:58.542Z,16.90
2023-06-30T06:48:00.236Z,16.88
2023-06-30T06:51:05.298Z,16.85
2023-06-30T06:54:09.639Z,16.81
2023-06-30T06:57:13.819Z,16.82
2023-06-30T07:00:19.242Z,16.78
2023-06-30T07:03:24.303Z,16.83
2023-06-30T07:06:28.915Z,16.95
2023-06-30T07:09:34.913Z,16.95
2023-06-30T07:12:39.308Z,17.04
2023-06-30T07:15:44.642Z,17.13
2023-06-30T07:18:49.790Z,17.27
2023-06-30T07:21:55.201Z,17.22
2023-06-30T07:25:00.732Z,17.19
2023-06-30T07:28:05.922Z,17.22
2023-06-30T07:31:10.457Z,17.25
2023-06-30T07:34:15.795Z,17.33
2023-06-30T07:37:20.393Z,17.36
2023-06-30T07:40:25.856Z,17.41
2023-06-30T07:43:31.597Z,17.42
2023-06-30T07:46:36.646Z,17.47
2023-06-30T07:49:41.169Z,17.51
2023-06-30T07:52:49.285Z,17.64
2023-06-30T07:55:53.897Z,17.72
2023-06-30T07:58:58.096Z,17.79
2023-06-30T08:02:02.681Z,17.81
2023-06-30T08:05:07.746Z,17.94
2023-06-30T08:08:13.109Z,18.05
2023-06-30T08:11:17.516Z,18.16
2023-06-30T08:14:21.654Z,18.19
2023-06-30T08:17:49.017Z,18.19
2023-06-30T08:20:51.166Z,18.21
2023-06-30T08:23:55.786Z,18.25
2023-06-30T08:27:00.625Z,18.18
2023-06-30T08:30:06.152Z,18.11
2023-06-30T08:33:12.657Z,18.01
2023-06-30T08:36:23.840Z,18.01
2023-06-30T08:39:32.552Z,18.15
2023-06-30T08:42:41.259Z,18.25
2023-06-30T08:45:50.516Z,18.44
2023-06-30T08:48:55.429Z,18.59
2023-06-30T08:52:01.018Z,18.64
2023-06-30T08:55:09.354Z,18.64
2023-06-30T08:58:24.921Z,18.58
2023-06-30T09:01:31.387Z,18.50
2023-06-30T09:04:37.784Z,18.57
2023-06-30T09:07:58.515Z,18.65
2023-06-30T09:11:05.683Z,18.65
2023-06-30T09:14:10.676Z,18.62
2023-06-30T09:17:15.728Z,18.68
2023-06-30T09:20:22.450Z,18.78
2023-06-30T09:23:29.224Z,18.84
2023-06-30T09:26:35.721Z,18.87
2023-06-30T09:29:40.358Z,18.97
2023-06-30T09:32:45.506Z,19.06
2023-06-30T09:35:50.114Z,19.03
2023-06-30T09:38:59.034Z,19.02
2023-06-30T09:42:03.231Z,19.03
2023-06-30T09:45:08.526Z,19.16
2023-06-30T09:48:14.599Z,19.30
2023-06-30T09:51:23.183Z,19.42
2023-06-30T09:54:43.222Z,19.46
2023-06-30T09:57:49.560Z,19.60
2023-06-30T10:00:54.876Z,19.58
2023-06-30T10:03:59.660Z,19.66
2023-06-30T10:07:06.450Z,19.70
2023-06-30T10:10:13.432Z,19.84
2023-06-30T10:13:19.262Z,19.86
2023-06-30T10:16:24.300Z,19.80
2023-06-30T10:19:32.871Z,19.77
2023-06-30T10:22:39.238Z,19.67
2023-06-30T10:25:44.505Z,19.67
2023-06-30T10:28:49.499Z,19.75
2023-06-30T10:35:00.928Z,19.48
2023-06-30T10:38:05.940Z,19.62
2023-06-30T10:41:23.801Z,19.74
2023-06-30T10:44:46.863Z,19.86
2023-06-30T10:47:52.461Z,20.06
2023-06-30T10:50:57.885Z,20.41
2023-06-30T10:54:02.538Z,20.72
2023-06-30T10:57:09.157Z,20.66
2023-06-30T11:00:17.458Z,20.34
2023-06-30T11:03:22.040Z,20.47
2023-06-30T11:06:27.804Z,21.24
2023-06-30T11:09:50.805Z,21.38
2023-06-30T11:12:57.281Z,21.97
2023-06-30T11:16:04.122Z,22.80
2023-06-30T11:19:24.146Z,23.42
2023-06-30T11:22:32.725Z,23.82
2023-06-30T11:25:37.495Z,23.81
2023-06-30T11:28:43.867Z,23.94
2023-06-30T11:31:53.071Z,24.09
2023-06-30T11:34:59.728Z,24.06
2023-06-30T11:38:05.051Z,24.16
2023-06-30T11:41:09.654Z,24.33
2023-06-30T11:44:14.527Z,24.44
2023-06-30T11:47:24.260Z,24.49
2023-06-30T11:50:31.406Z,24.63
2023-06-30T11:53:49.970Z,24.69
2023-06-30T11:56:54.620Z,24.53
2023-06-30T11:59:59.198Z,23.99
2023-06-30T12:03:05.395Z,23.66
2023-06-30T12:06:10.489Z,24.00
2023-06-30T12:09:15.163Z,24.14
2023-06-30T12:12:30.131Z,24.16
2023-06-30T12:15:39.702Z,24.08
2023-06-30T12:18:48.921Z,24.09
2023-06-30T12:21:58.653Z,24.25
2023-06-30T12:25:12.606Z,23.94
2023-06-30T12:28:18.030Z,23.53
2023-06-30T12:31:25.690Z,23.37
2023-06-30T12:34:37.267Z,22.95
2023-06-30T12:37:45.778Z,22.55
2023-06-30T12:40:53.637Z,22.37
2023-06-30T12:44:02.456Z,22.63
2023-06-30T12:47:10.936Z,22.54
2023-06-30T12:50:15.882Z,22.44
2023-06-30T12:53:20.521Z,22.73
2023-06-30T12:56:25.892Z,22.95
2023-06-30T12:59:31.372Z,23.03
2023-06-30T13:02:36.094Z,22.81
2023-06-30T13:05:41.671Z,22.70
2023-06-30T13:08:46.765Z,22.66
2023-06-30T13:11:52.143Z,22.64
2023-06-30T13:14:58.798Z,22.51
2023-06-30T13:18:03.549Z,22.39
2023-06-30T13:21:08.865Z,22.24
2023-06-30T13:24:13.550Z,22.10
2023-06-30T13:27:18.463Z,22.01
2023-06-30T13:30:23.297Z,21.96
2023-06-30T13:33:28.046Z,21.88
2023-06-30T13:36:32.828Z,21.84
2023-06-30T13:39:37.911Z,21.84
2023-06-30T13:42:42.280Z,21.75
2023-06-30T13:45:47.065Z,21.71
2023-06-30T13:48:51.859Z,21.70
2023-06-30T13:51:56.321Z,21.67
2023-06-30T13:58:23.574Z,21.74
2023-06-30T14:01:29.484Z,21.67
2023-06-30T14:04:35.331Z,21.65
2023-06-30T14:07:40.360Z,21.60
2023-06-30T14:10:45.851Z,21.60
2023-06-30T14:13:51.169Z,21.57
2023-06-30T14:16:55.832Z,21.47
2023-06-30T14:20:00.272Z,21.42
2023-06-30T14:23:06.879Z,21.41
2023-06-30T14:26:11.611Z,21.46
2023-06-30T14:29:16.229Z,21.49
2023-06-30T14:32:23.950Z,21.43
2023-06-30T14:35:32.596Z,21.33
2023-06-30T14:38:37.145Z,21.30
2023-06-30T14:41:49.994Z,21.25
2023-06-30T14:45:02.051Z,21.21
2023-06-30T14:48:06.633Z,21.19
2023-06-30T14:51:11.699Z,21.14
2023-06-30T14:54:16.942Z,21.14
2023-06-30T14:57:21.737Z,21.14
2023-06-30T15:00:26.726Z,21.09
2023-06-30T15:03:31.747Z,21.07
2023-06-30T15:06:36.574Z,21.07
2023-06-30T15:09:41.219Z,21.06
2023-06-30T15:12:45.635Z,21.02
2023-06-30T15:15:54.067Z,21.05
2023-06-30T15:18:58.308Z,21.01
2023-06-30T15:22:03.167Z,20.91
2023-06-30T15:25:08.249Z,20.85
2023-06-30T15:28:12.796Z,20.88
2023-06-30T15:31:17.067Z,20.85
2023-06-30T15:34:21.487Z,20.83
2023-06-30T15:37:26.031Z,20.85
2023-06-30T15:40:30.373Z,20.77
2023-06-30T15:43:34.548Z,20.70
2023-06-30T15:46:39.068Z,20.67
2023-06-30T15:49:43.367Z,20.63
2023-06-30T15:52:47.833Z,20.62
2023-06-30T15:55:52.164Z,20.58
2023-06-30T15:58:56.660Z,20.55
2023-06-30T16:02:01.714Z,20.49
2023-06-30T16:05:10.674Z,20.46
2023-06-30T16:08:15.351Z,20.39
2023-06-30T16:11:19.862Z,20.36
2023-06-30T16:14:24.207Z,20.27
2023-06-30T16:17:28.805Z,20.26
2023-06-30T16:20:33.435Z,20.24
2023-06-30T16:23:37.860Z,20.21
2023-06-30T16:26:42.434Z,20.18
2023-06-30T16:29:46.928Z,20.14
2023-06-30T16:32:53.159Z,20.16
2023-06-30T16:35:57.818Z,20.14
2023-06-30T16:39:02.408Z,20.08
2023-06-30T16:42:07.062Z,19.99
2023-06-30T16:45:12.951Z,19.88
2023-06-30T16:48:17.532Z,19.82
2023-06-30T16:51:22.345Z,19.78
2023-06-30T16:54:27.464Z,19.78
2023-06-30T16:57:32.087Z,19.74
2023-06-30T17:00:36.475Z,19.71
2023-06-30T17:03:40.754Z,19.69
2023-06-30T17:06:45.298Z,19.70
2023-06-30T17:09:49.773Z,19.70
2023-06-30T17:12:54.412Z,19.63
2023-06-30T17:15:58.969Z,19.54
2023-06-30T17:19:03.654Z,19.48
2023-06-30T17:22:08.454Z,19.43
2023-06-30T17:25:13.854Z,19.36
2023-06-30T17:28:18.491Z,19.36
2023-06-30T17:31:23.232Z,19.35
2023-06-30T17:34:27.773Z,19.35
2023-06-30T17:37:32.510Z,19.29
2023-06-30T17:40:39.542Z,19.27
2023-06-30T17:43:44.964Z,19.19
2023-06-30T17:46:49.970Z,19.14
2023-06-30T17:49:55.779Z,19.08
2023-06-30T17:53:00.012Z,19.03
2023-06-30T17:56:04.710Z,19.02
2023-06-30T17:59:09.269Z,19.00
2023-06-30T18:02:14.171Z,19.00
2023-06-30T18:05:19.959Z,19.00
2023-06-30T18:08:27.230Z,18.99
2023-06-30T18:11:32.292Z,18.95
2023-06-30T18:14:38.368Z,18.93
2023-06-30T18:17:42.904Z,18.92
2023-06-30T18:20:47.632Z,18.88
2023-06-30T18:23:52.177Z,18.81
2023-06-30T18:26:56.847Z,18.77
2023-06-30T18:30:01.946Z,18.74
2023-06-30T18:33:06.494Z,18.72
2023-06-30T18:36:10.850Z,18.69
2023-06-30T18:39:15.733Z,18.61
2023-06-30T18:42:20.375Z,18.56
2023-06-30T18:45:25.143Z,18.52
2023-06-30T18:48:29.547Z,18.43
2023-06-30T18:51:34.253Z,18.38
2023-06-30T18:54:39.032Z,18.27
2023-06-30T18:57:43.210Z,18.23
2023-06-30T19:00:47.780Z,18.10
2023-06-30T19:03:53.187Z,18.01
2023-06-30T19:06:58.170Z,17.92
2023-06-30T19:10:03.438Z,17.86
2023-06-30T19:13:08.800Z,17.79
2023-06-30T19:16:13.602Z,17.74
2023-06-30T19:19:18.537Z,17.70
2023-06-30T19:22:23.466Z,17.66
2023-06-30T19:25:28.107Z,17.54
2023-06-30T19:28:32.316Z,17.53
2023-06-30T19:31:37.002Z,17.45
2023-06-30T19:34:43.651Z,17.46
2023-06-30T19:37:48.267Z,17.47
2023-06-30T19:40:53.729Z,17.44
2023-06-30T19:43:58.636Z,17.38
2023-06-30T19:47:11.832Z,17.35
2023-06-30T19:50:16.750Z,17.31
2023-06-30T19:53:21.343Z,17.26
2023-06-30T19:56:25.465Z,17.20
2023-06-30T19:59:29.953Z,17.18
2023-06-30T20:02:34.375Z,17.12
2023-06-30T20:05:38.812Z,17.01
2023-06-30T20:08:43.471Z,17.01
2023-06-30T20:11:48.170Z,16.98
2023-06-30T20:14:52.749Z,16.84
2023-06-30T20:17:57.458Z,16.82
2023-06-30T20:21:01.901Z,16.81
2023-06-30T20:24:07.307Z,16.79
2023-06-30T20:27:12.060Z,16.75
2023-06-30T20:30:16.486Z,16.70
2023-06-30T20:33:21.025Z,16.71
2023-06-30T20:36:25.438Z,16.74
2023-06-30T20:39:30.428Z,16.72
2023-06-30T20:42:35.540Z,16.69
2023-06-30T20:45:41.288Z,16.69
2023-06-30T20:48:46.022Z,16.71
2023-06-30T20:51:54.325Z,16.81
2023-06-30T20:54:59.655Z,16.78
2023-06-30T20:58:04.087Z,16.78
2023-06-30T21:01:08.680Z,16.81
2023-06-30T21:04:13.558Z,16.83
2023-06-30T21:07:18.377Z,16.88
2023-06-30T21:10:22.998Z,16.90
2023-06-30T21:13:28.524Z,16.93
2023-06-30T21:16:33.253Z,16.95
2023-06-30T21:19:37.869Z,16.95
2023-06-30T21:22:42.984Z,16.98
2023-06-30T21:25:47.551Z,16.96
2023-06-30T21:28:52.767Z,17.04
2023-06-30T21:31:57.775Z,17.01
2023-06-30T21:35:02.656Z,17.01
2023-06-30T21:38:07.606Z,17.02
2023-06-30T21:41:12.883Z,17.01
2023-06-30T21:44:17.305Z,16.99
2023-06-30T21:47:21.507Z,17.03
2023-06-30T21:50:26.035Z,17.02
2023-06-30T21:53:30.376Z,17.02
2023-06-30T21:56:35.411Z,17.08
2023-06-30T21:59:40.314Z,17.02
2023-06-30T22:02:48.050Z,17.05
2023-06-30T22:05:53.076Z,17.04
2023-06-30T22:09:00.323Z,17.04
2023-06-30T22:12:08.660Z,17.02
2023-06-30T22:15:13.075Z,17.05
2023-06-30T22:18:17.819Z,17.06
2023-06-30T22:21:23.994Z,17.06
2023-06-30T22:24:28.884Z,17.07
2023-06-30T22:27:33.477Z,17.11
2023-06-30T22:30:37.700Z,17.11
2023-06-30T22:33:41.855Z,17.12
2023-06-30T22:36:46.188Z,17.11
2023-06-30T22:39:50.422Z,17.15
2023-06-30T22:42:55.025Z,17.18
2023-06-30T22:45:59.579Z,17.12
2023-06-30T22:49:04.571Z,17.17
2023-06-30T22:52:09.123Z,17.16
2023-06-30T22:55:13.814Z,17.14
2023-06-30T22:58:18.508Z,17.15
2023-06-30T23:01:22.918Z,17.18
2023-06-30T23:04:27.378Z,17.13
2023-06-30T23:07:31.482Z,17.20
2023-06-30T23:10:35.763Z,17.20
2023-06-30T23:13:40.297Z,17.20
2023-06-30T23:16:44.666Z,17.22
2023-06-30T23:19:50.389Z,17.24
2023-06-30T23:22:54.939Z,17.29
2023-06-30T23:25:59.197Z,17.35
2023-06-30T23:29:06.852Z,17.38
2023-06-30T23:32:12.359Z,17.42
2023-06-30T23:35:17.125Z,17.44
2023-06-30T23:38:21.469Z,17.45
2023-06-30T23:41:27.412Z,17.45
2023-06-30T23:44:31.696Z,17.50
2023-06-30T23:47:36.356Z,17.51
2023-06-30T23:50:40.890Z,17.50
2023-06-30T23:53:45.343Z,17.54
2023-06-30T23:56:50.356Z,17.55
2023-06-30T23:59:54.682Z,17.55
